Time;durP1;ratioP1;P1;durP2;ratioP2;P2;SDS_P1;SDS_P2;PMS_P1;PMS_P2;Temp;Humidity;BMP_temperature;BMP_pressure;BME280_temperature;BME280_humidity;BME280_pressure;Samples;Min_cycle;Max_cycle;Signal;HPM_P1;HPM_P2
2022/01/18 00:00:37;;;;;;;31.42;9.75;;;;;;;2.47;100.00;103749.59;5088264;28;20047;-79
2022/01/18 00:03:03;;;;;;;28.73;9.75;;;;;;;2.49;100.00;103752.19;5088505;28;20028;-79
2022/01/18 00:05:28;;;;;;;29.30;9.32;;;;;;;2.50;100.00;103751.34;5087677;28;20027;-79
2022/01/18 00:07:54;;;;;;;26.60;8.60;;;;;;;2.49;100.00;103750.47;5080275;28;20361;-79
2022/01/18 00:10:24;;;;;;;33.47;9.98;;;;;;;2.51;100.00;103761.75;5087907;28;20048;-79
2022/01/18 00:15:42;;;;;;;28.55;9.85;;;;;;;2.55;100.00;103753.97;5079137;28;20028;-79
2022/01/18 00:18:12;;;;;;;34.28;11.07;;;;;;;2.59;100.00;103758.31;5082156;28;20028;-79
2022/01/18 00:23:16;;;;;;;33.13;11.18;;;;;;;2.65;100.00;103758.34;5081370;28;20530;-79
2022/01/18 00:25:45;;;;;;;41.70;11.32;;;;;;;2.65;100.00;103758.34;5087550;28;20032;-79
2022/01/18 00:28:10;;;;;;;34.72;11.35;;;;;;;2.68;100.00;103753.16;5084823;28;20804;-79
2022/01/18 00:33:20;;;;;;;35.22;11.50;;;;;;;2.71;100.00;103767.03;5080132;28;20043;-79
2022/01/18 00:35:47;;;;;;;36.72;11.68;;;;;;;2.73;100.00;103767.94;5087242;28;20052;-79
2022/01/18 00:38:28;;;;;;;34.70;12.65;;;;;;;2.76;100.00;103770.53;5087258;28;20024;-79
2022/01/18 00:40:54;;;;;;;40.85;12.50;;;;;;;2.81;100.00;103781.00;5091680;28;20024;-79
2022/01/18 00:43:22;;;;;;;42.75;12.98;;;;;;;2.77;100.00;103774.00;5090226;28;20020;-79
2022/01/18 00:45:48;;;;;;;33.67;12.40;;;;;;;2.82;100.00;103778.41;5089476;28;20036;-79
2022/01/18 00:48:13;;;;;;;46.03;12.98;;;;;;;2.85;100.00;103781.88;5079476;28;20048;-79
2022/01/18 00:50:39;;;;;;;40.15;13.25;;;;;;;2.86;100.00;103779.28;5087360;28;20520;-79
2022/01/18 00:53:12;;;;;;;36.45;12.10;;;;;;;2.86;100.00;103783.63;5107338;28;20020;-79
2022/01/18 00:55:48;;;;;;;35.88;13.10;;;;;;;2.89;100.00;103789.69;5084587;28;20142;-79
2022/01/18 00:58:14;;;;;;;48.80;13.65;;;;;;;2.91;100.00;103793.19;5100151;28;20446;-79
2022/01/18 01:00:39;;;;;;;36.15;12.70;;;;;;;2.92;100.00;103800.13;5092139;28;20103;-79
2022/01/18 01:03:05;;;;;;;34.10;13.38;;;;;;;2.97;100.00;103797.53;5091754;28;20123;-79
2022/01/18 01:05:30;;;;;;;36.10;13.00;;;;;;;2.97;100.00;103792.34;5089662;28;20843;-79
2022/01/18 01:07:56;;;;;;;48.67;13.20;;;;;;;3.00;100.00;103781.94;5084181;28;20024;-79
2022/01/18 01:10:21;;;;;;;27.95;12.85;;;;;;;3.01;100.00;103784.56;5091517;28;20024;-79
2022/01/18 01:12:47;;;;;;;36.13;12.82;;;;;;;3.01;100.00;103784.56;5098718;28;20108;-79
2022/01/18 01:15:14;;;;;;;36.22;12.95;;;;;;;3.03;100.00;103785.44;5083449;28;20024;-79
2022/01/18 01:17:49;;;;;;;40.20;13.25;;;;;;;3.06;100.00;103781.97;5091616;28;20093;-79
2022/01/18 01:42:30;;;;;;;49.83;13.60;;;;;;;3.20;100.00;103776.81;5090198;28;20046;-79
2022/01/18 01:44:56;;;;;;;54.22;14.63;;;;;;;3.20;100.00;103774.22;5083101;28;20035;-79
2022/01/18 01:47:33;;;;;;;49.15;14.63;;;;;;;3.23;100.00;103779.47;5081624;28;20024;-78
2022/01/18 01:49:59;;;;;;;54.75;16.25;;;;;;;3.23;100.00;103777.72;5089804;28;20128;-79
2022/01/18 01:52:24;;;;;;;49.78;15.68;;;;;;;3.27;100.00;103776.00;5089513;28;20637;-78
2022/01/18 01:54:50;;;;;;;63.35;16.08;;;;;;;3.28;100.00;103776.00;5089984;28;20409;-81
2022/01/18 01:57:16;;;;;;;46.25;16.40;;;;;;;3.31;100.00;103776.00;5089718;28;20058;-81
2022/01/18 01:59:44;;;;;;;48.00;15.57;;;;;;;3.31;100.00;103786.41;5088492;28;20031;-79
2022/01/18 02:02:10;;;;;;;50.80;15.77;;;;;;;3.35;100.00;103789.91;5089084;28;20046;-79
2022/01/18 02:04:35;;;;;;;46.60;15.63;;;;;;;3.34;100.00;103777.75;5088285;28;20754;-79
2022/01/18 02:07:01;;;;;;;49.17;16.10;;;;;;;3.37;100.00;103782.97;5089541;28;20068;-79
2022/01/18 02:09:26;;;;;;;42.45;16.50;;;;;;;3.38;100.00;103784.69;5089258;28;20024;-79
2022/01/18 02:11:55;;;;;;;45.00;16.63;;;;;;;3.39;100.00;103778.63;5084093;28;20120;-79
2022/01/18 02:14:22;;;;;;;51.45;17.25;;;;;;;3.41;100.00;103780.38;5086322;28;20177;-79
2022/01/18 02:22:16;;;;;;;44.85;17.52;;;;;;;3.47;100.00;103784.72;5089035;28;20036;-79
2022/01/18 02:24:42;;;;;;;44.90;16.48;;;;;;;3.50;100.00;103784.72;5090486;28;20031;-78
2022/01/18 02:27:07;;;;;;;45.17;17.38;;;;;;;3.52;100.00;103790.81;5089191;28;20028;-79
2022/01/18 02:29:32;;;;;;;47.00;16.77;;;;;;;3.52;100.00;103779.53;5088429;28;20457;-79
2022/01/18 02:31:59;;;;;;;47.42;17.67;;;;;;;3.55;100.00;103783.00;5085462;28;20487;-79
2022/01/18 02:34:25;;;;;;;39.75;17.73;;;;;;;3.52;100.00;103774.31;5089497;28;20044;-79
2022/01/18 02:36:57;;;;;;;55.90;18.88;;;;;;;3.56;100.00;103778.66;5089555;28;20042;-79
2022/01/18 02:39:25;;;;;;;37.93;16.83;;;;;;;3.55;100.00;103772.59;5082748;28;20009;-79
2022/01/18 02:41:55;;;;;;;53.70;18.30;;;;;;;3.60;100.00;103770.00;5089271;28;20047;-79
2022/01/18 02:44:21;;;;;;;50.13;18.25;;;;;;;3.60;100.00;103765.69;5087194;28;20020;-79
2022/01/18 02:46:47;;;;;;;48.53;18.13;;;;;;;3.61;100.00;103767.44;5089236;28;20623;-79
2022/01/18 02:49:12;;;;;;;49.70;17.75;;;;;;;3.62;100.00;103761.34;5082223;28;20024;-79
2022/01/18 02:51:38;;;;;;;50.78;18.10;;;;;;;3.63;100.00;103765.69;5078910;28;20028;-79
2022/01/18 02:54:09;;;;;;;48.00;18.00;;;;;;;3.65;100.00;103768.31;5089721;28;20127;-79
2022/01/18 02:56:59;;;;;;;51.63;19.23;;;;;;;3.66;100.00;103768.31;5087915;28;20110;-79
2022/01/18 02:59:34;;;;;;;54.10;18.98;;;;;;;3.65;100.00;103768.31;5088047;28;20036;-80
2022/01/18 03:04:48;;;;;;;45.42;18.38;;;;;;;3.67;100.00;103771.78;5087196;28;20570;-79
2022/01/18 03:07:14;;;;;;;49.13;20.52;;;;;;;3.68;100.00;103766.56;5076871;28;20032;-79
2022/01/18 03:09:39;;;;;;;51.30;20.23;;;;;;;3.68;100.00;103768.31;5086669;28;20347;-79
2022/01/18 03:12:07;;;;;;;50.92;20.25;;;;;;;3.68;100.00;103771.78;5086856;28;20028;-79
2022/01/18 03:14:33;;;;;;;59.33;21.00;;;;;;;3.66;100.00;103765.69;5088110;28;20028;-79
2022/01/18 03:16:58;;;;;;;43.15;19.75;;;;;;;3.67;100.00;103772.63;5088316;28;20031;-79
2022/01/18 03:19:24;;;;;;;47.33;19.85;;;;;;;3.69;100.00;103773.50;5083450;28;20027;-79
2022/01/18 03:21:50;;;;;;;54.88;20.45;;;;;;;3.71;100.00;103777.00;5077847;28;20028;-79
2022/01/18 03:24:32;;;;;;;48.78;19.88;;;;;;;3.70;100.00;103785.66;5088503;28;20024;-79
2022/01/18 03:29:42;;;;;;;50.10;20.48;;;;;;;3.71;100.00;103790.00;5089518;28;20046;-79
2022/01/18 03:32:08;;;;;;;45.45;19.98;;;;;;;3.72;100.00;103781.31;5089300;28;20028;-79
2022/01/18 03:34:34;;;;;;;48.35;20.38;;;;;;;3.73;100.00;103790.88;5080224;28;20111;-79
2022/01/18 03:36:59;;;;;;;41.75;20.15;;;;;;;3.72;100.00;103786.53;5088419;28;20480;-79
2022/01/18 03:39:25;;;;;;;45.30;20.38;;;;;;;3.73;100.00;103783.06;5089005;28;20032;-79
2022/01/18 03:42:11;;;;;;;51.17;21.35;;;;;;;3.73;100.00;103785.66;5088639;28;20047;-79
2022/01/18 03:44:37;;;;;;;41.72;20.15;;;;;;;3.73;100.00;103780.47;5087767;28;20034;-79
2022/01/18 03:47:03;;;;;;;41.45;20.98;;;;;;;3.74;100.00;103778.72;5095655;28;20024;-79
2022/01/18 03:49:30;;;;;;;45.80;21.10;;;;;;;3.74;100.00;103773.50;5088604;28;20122;-79
2022/01/18 03:51:55;;;;;;;37.58;21.27;;;;;;;3.73;100.00;103780.47;5088735;28;20016;-79
2022/01/18 03:54:23;;;;;;;43.20;21.27;;;;;;;3.74;100.00;103784.81;5095853;28;20522;-79
2022/01/18 03:56:49;;;;;;;48.80;22.05;;;;;;;3.73;100.00;103784.81;5086986;28;20050;-79
2022/01/18 03:59:14;;;;;;;44.95;23.02;;;;;;;3.74;100.00;103796.94;5086711;28;20028;-79
2022/01/18 04:01:40;;;;;;;42.10;20.83;;;;;;;3.73;100.00;103798.69;5086850;28;20403;-79
2022/01/18 04:04:05;;;;;;;44.75;21.10;;;;;;;3.74;100.00;103796.94;5088350;28;20032;-79
2022/01/18 04:06:31;;;;;;;47.72;22.02;;;;;;;3.74;100.00;103799.56;5102960;28;20297;-79
2022/01/18 04:08:56;;;;;;;42.63;21.75;;;;;;;3.75;100.00;103802.16;5086052;28;20032;-79
2022/01/18 04:11:21;;;;;;;40.13;21.15;;;;;;;3.75;100.00;103802.16;5087391;28;20020;-79
2022/01/18 04:13:47;;;;;;;38.58;20.55;;;;;;;3.76;100.00;103803.91;5087331;28;20115;-79
2022/01/18 04:16:13;;;;;;;47.97;21.88;;;;;;;3.76;100.00;103803.91;5091606;28;20376;-79
2022/01/18 04:18:52;;;;;;;45.78;21.15;;;;;;;3.76;100.00;103809.09;5091633;28;20387;-79
2022/01/18 04:29:14;;;;;;;44.97;21.60;;;;;;;3.77;100.00;103816.06;5091374;28;20044;-79
2022/01/18 04:31:40;;;;;;;43.33;21.52;;;;;;;3.78;100.00;103812.59;5091702;28;20055;-79
2022/01/18 04:34:05;;;;;;;47.25;21.40;;;;;;;3.78;100.00;103817.78;5083853;28;20527;-79
2022/01/18 04:36:30;;;;;;;44.83;22.02;;;;;;;3.79;100.00;103808.25;5083646;28;20915;-79
2022/01/18 04:38:56;;;;;;;47.47;22.60;;;;;;;3.80;100.00;103809.09;5092930;28;20024;-79
2022/01/18 04:41:29;;;;;;;47.75;21.23;;;;;;;3.79;100.00;103810.84;5091356;28;20056;-79
2022/01/18 04:49:10;;;;;;;57.97;22.40;;;;;;;3.78;100.00;103812.59;5092985;28;20387;-79
2022/01/18 04:51:37;;;;;;;50.42;21.40;;;;;;;3.80;100.00;103809.09;5088777;28;20038;-79
2022/01/18 04:54:05;;;;;;;57.72;22.55;;;;;;;3.78;100.00;103814.31;5091254;28;20047;-79
2022/01/18 04:59:01;;;;;;;56.08;21.33;;;;;;;3.76;100.00;103814.31;5092044;28;20028;-79
2022/01/18 05:01:26;;;;;;;59.45;21.67;;;;;;;3.76;100.00;103813.44;5090402;28;20027;-79
2022/01/18 05:03:52;;;;;;;56.88;21.52;;;;;;;3.77;100.00;103818.66;5089000;28;20024;-79
2022/01/18 05:06:19;;;;;;;57.50;21.83;;;;;;;3.77;100.00;103818.66;5079747;28;20016;-79
2022/01/18 05:08:44;;;;;;;58.35;21.63;;;;;;;3.76;100.00;103803.91;5086177;28;20038;-79
2022/01/18 05:11:16;;;;;;;57.22;22.40;;;;;;;3.77;100.00;103816.06;5090857;28;20109;-79
2022/01/18 05:21:27;;;;;;;59.17;22.48;;;;;;;3.80;100.00;103824.75;5084612;28;20125;-79
2022/01/18 05:23:54;;;;;;;;;;;;;;;3.89;100.00;103825.63;5090916;28;20353;-79
2022/01/18 05:26:20;;;;;;;54.30;20.63;;;;;;;3.83;100.00;103824.75;5104124;28;20119;-79
2022/01/18 05:28:45;;;;;;;50.83;21.58;;;;;;;3.81;100.00;103821.25;5082853;28;20028;-79
2022/01/18 05:31:14;;;;;;;50.80;20.98;;;;;;;3.82;100.00;103823.00;5089785;28;20028;-79
2022/01/18 05:33:42;;;;;;;58.55;21.83;;;;;;;3.80;100.00;103824.75;5081465;28;20544;-79
2022/01/18 05:36:09;;;;;;;57.88;21.13;;;;;;;3.82;100.00;103828.22;5088733;28;20056;-79
2022/01/18 05:38:35;;;;;;;55.10;21.55;;;;;;;3.81;100.00;103829.94;5088689;28;20032;-79
2022/01/18 05:41:02;;;;;;;62.22;21.23;;;;;;;3.77;100.00;103830.81;5088757;28;20085;-79
2022/01/18 05:43:28;;;;;;;59.22;21.77;;;;;;;3.80;100.00;103832.53;5089734;28;20030;-79
2022/01/18 05:45:53;;;;;;;66.25;22.08;;;;;;;3.81;100.00;103821.25;5090568;28;20103;-79
2022/01/18 05:48:18;;;;;;;59.13;22.23;;;;;;;3.80;100.00;103829.94;5088557;28;20023;-78
2022/01/18 05:50:44;;;;;;;52.83;20.90;;;;;;;3.78;100.00;103807.38;5091219;28;20069;-79
2022/01/18 05:53:09;;;;;;;69.25;21.38;;;;;;;3.76;100.00;103816.91;5090264;28;20123;-79
2022/01/18 05:55:35;;;;;;;58.85;21.63;;;;;;;3.79;100.00;103816.06;5089689;28;20036;-79
2022/01/18 05:58:00;;;;;;;46.38;20.27;;;;;;;3.78;100.00;103812.59;5090948;28;20024;-78
2022/01/18 06:00:28;;;;;;;56.75;21.05;;;;;;;3.78;100.00;103825.59;5089113;28;20020;-79
2022/01/18 06:08:08;;;;;;;58.85;22.77;;;;;;;3.79;100.00;103816.06;5088347;28;20592;-79
2022/01/18 06:10:33;;;;;;;59.42;21.27;;;;;;;3.78;100.00;103812.59;5105708;28;20071;-79
2022/01/18 06:13:03;;;;;;;65.90;23.20;;;;;;;3.82;100.00;103823.00;5091074;28;20035;-79
2022/01/18 06:15:30;;;;;;;54.00;21.30;;;;;;;3.80;100.00;103816.91;5089447;28;20028;-79
2022/01/18 06:17:56;;;;;;;57.38;22.13;;;;;;;3.83;100.00;103823.00;5090835;28;20039;-79
2022/01/18 06:20:21;;;;;;;53.83;22.02;;;;;;;3.80;100.00;103815.19;5088632;28;20527;-79
2022/01/18 06:22:49;;;;;;;61.45;23.15;;;;;;;3.83;100.00;103819.53;5099293;28;20483;-79
2022/01/18 06:25:14;;;;;;;67.28;23.42;;;;;;;3.80;100.00;103820.41;5087761;28;20433;-79
2022/01/18 06:27:40;;;;;;;64.88;21.88;;;;;;;3.82;100.00;103826.47;5088296;28;20034;-79
2022/01/18 06:30:09;;;;;;;64.10;23.25;;;;;;;3.84;100.00;103826.47;5080837;28;20030;-79
2022/01/18 06:32:39;;;;;;;66.80;23.45;;;;;;;3.82;100.00;103823.88;5089135;28;20039;-79
2022/01/18 06:35:06;;;;;;;65.00;23.90;;;;;;;3.82;100.00;103820.41;5089377;28;20071;-79
2022/01/18 06:37:32;;;;;;;69.10;23.30;;;;;;;3.83;100.00;103814.31;5087561;28;20238;-79
2022/01/18 06:39:58;;;;;;;73.20;23.70;;;;;;;3.83;100.00;103819.53;5088190;28;20019;-79
2022/01/18 06:42:24;;;;;;;74.35;24.90;;;;;;;3.82;100.00;103815.19;5088036;28;20036;-79
2022/01/18 06:44:51;;;;;;;73.30;23.88;;;;;;;3.82;100.00;103815.19;5085171;28;20107;-79
2022/01/18 06:47:16;;;;;;;68.45;24.13;;;;;;;3.80;100.00;103820.41;5084893;28;20047;-79
2022/01/18 06:49:42;;;;;;;73.18;24.08;;;;;;;3.83;100.00;103824.75;5085515;28;20035;-79
2022/01/18 06:52:07;;;;;;;66.35;23.90;;;;;;;3.85;100.00;103833.44;5084477;28;20118;-79
2022/01/18 06:54:33;;;;;;;66.35;23.98;;;;;;;3.84;100.00;103826.47;5088223;28;20536;-79
2022/01/18 06:56:58;;;;;;;68.70;23.67;;;;;;;3.84;100.00;103829.09;5088525;28;20028;-79
2022/01/18 06:59:24;;;;;;;58.47;23.25;;;;;;;3.84;100.00;103826.47;5088402;28;20432;-79
2022/01/18 07:01:49;;;;;;;57.30;22.92;;;;;;;3.85;100.00;103834.28;5086995;28;20020;-79
2022/01/18 07:04:15;;;;;;;62.95;22.20;;;;;;;3.84;100.00;103829.09;5088425;28;20032;-79
2022/01/18 07:06:40;;;;;;;57.17;22.70;;;;;;;3.87;100.00;103836.91;5079742;28;20161;-79
2022/01/18 07:09:05;;;;;;;57.55;22.25;;;;;;;3.87;100.00;103836.91;5088130;28;20478;-79
2022/01/18 07:11:31;;;;;;;50.63;21.80;;;;;;;3.87;100.00;103831.69;5088093;28;20038;-79
2022/01/18 07:13:56;;;;;;;59.58;22.48;;;;;;;3.88;100.00;103841.25;5097157;28;20018;-79
2022/01/18 07:16:21;;;;;;;70.55;23.85;;;;;;;3.87;100.00;103837.75;5080261;28;20028;-79
2022/01/18 07:18:47;;;;;;;69.13;24.27;;;;;;;3.88;100.00;103836.03;5080607;28;20024;-79
2022/01/18 07:21:13;;;;;;;65.82;23.90;;;;;;;3.86;100.00;103841.25;5089256;28;20471;-81
2022/01/18 07:23:38;;;;;;;66.03;23.48;;;;;;;3.89;100.00;103840.38;5088540;28;20060;-79
2022/01/18 07:26:05;;;;;;;62.88;23.63;;;;;;;3.88;100.00;103844.72;5088815;28;20046;-79
2022/01/18 07:28:30;;;;;;;72.68;23.83;;;;;;;3.89;100.00;103850.78;5072337;28;20028;-80
2022/01/18 07:30:56;;;;;;;65.75;23.58;;;;;;;3.87;100.00;103847.31;5079941;28;20147;-79
2022/01/18 07:33:21;;;;;;;69.57;24.13;;;;;;;3.90;100.00;103847.31;5088078;28;20024;-79
2022/01/18 07:35:47;;;;;;;65.97;23.20;;;;;;;3.90;100.00;103852.53;5087759;28;20050;-79
2022/01/18 07:38:16;;;;;;;68.20;24.58;;;;;;;3.91;100.00;103856.88;5088895;28;20020;-79
2022/01/18 07:40:44;;;;;;;70.18;23.77;;;;;;;3.90;100.00;103852.53;5086758;28;20056;-81
2022/01/18 07:43:10;;;;;;;68.07;24.25;;;;;;;3.92;100.00;103854.28;5103951;28;20020;-79
2022/01/18 07:45:36;;;;;;;62.47;23.15;;;;;;;3.90;100.00;103844.72;5079937;28;20081;-79
2022/01/18 07:48:02;;;;;;;62.17;24.05;;;;;;;3.91;100.00;103851.66;5085373;28;21940;-80
2022/01/18 07:50:27;;;;;;;68.43;23.85;;;;;;;3.90;100.00;103855.13;5079890;28;20085;-79
2022/01/18 07:52:53;;;;;;;69.72;24.35;;;;;;;3.93;100.00;103862.94;5082049;28;20027;-79
2022/01/18 07:55:18;;;;;;;63.30;24.27;;;;;;;3.94;100.00;103862.94;5083314;28;20126;-79
2022/01/18 07:57:44;;;;;;;81.43;26.60;;;;;;;3.95;100.00;103869.91;5086747;28;20095;-80
2022/01/18 08:00:15;;;;;;;74.63;24.52;;;;;;;3.95;100.00;103869.03;5085310;28;20107;-80
2022/01/18 08:02:42;;;;;;;71.00;26.02;;;;;;;3.95;100.00;103869.03;5101900;28;20024;-80
2022/01/18 08:05:09;;;;;;;75.10;24.85;;;;;;;3.94;100.00;103859.47;5085007;28;20085;-80
2022/01/18 08:07:35;;;;;;;74.57;25.55;;;;;;;3.91;100.00;103854.25;5085259;28;20031;-81
2022/01/18 08:10:02;;;;;;;75.45;24.58;;;;;;;3.92;100.00;103863.81;5085344;28;20050;-80
2022/01/18 08:12:28;;;;;;;83.03;25.23;;;;;;;3.94;100.00;103867.28;5082408;28;20028;-80
2022/01/18 08:14:59;;;;;;;77.75;24.83;;;;;;;3.96;100.00;103870.78;5087349;28;20434;-80
2022/01/18 08:17:25;;;;;;;79.47;24.33;;;;;;;3.94;100.00;103860.34;5082722;28;20023;-79
2022/01/18 08:19:50;;;;;;;77.30;24.40;;;;;;;3.91;100.00;103849.94;5086687;28;20032;-79
2022/01/18 08:22:16;;;;;;;84.28;26.52;;;;;;;3.98;100.00;103861.22;5084136;28;20663;-79
2022/01/18 08:24:44;;;;;;;81.38;24.67;;;;;;;4.00;100.00;103859.50;5087354;28;20084;-79
2022/01/18 08:27:09;;;;;;;99.93;26.90;;;;;;;3.99;100.00;103863.81;5074120;28;20020;-79
2022/01/18 08:29:36;;;;;;;83.75;25.63;;;;;;;4.00;100.00;103863.00;5086441;28;20028;-81
2022/01/18 08:32:03;;;;;;;97.57;28.42;;;;;;;4.02;100.00;103863.00;5085634;28;20024;-82
2022/01/18 08:34:28;;;;;;;91.78;26.42;;;;;;;4.00;100.00;103857.78;5086240;28;20044;-81
2022/01/18 08:36:53;;;;;;;78.43;26.00;;;;;;;4.04;100.00;103863.88;5090698;28;20028;-80
2022/01/18 08:39:22;;;;;;;90.82;26.67;;;;;;;4.03;100.00;103854.31;5085227;28;20016;-79
2022/01/18 08:41:48;;;;;;;101.05;27.77;;;;;;;4.06;100.00;103854.31;5086232;28;20025;-79
2022/01/18 08:44:14;;;;;;;95.32;27.20;;;;;;;4.07;100.00;103861.25;5086556;28;20070;-80
2022/01/18 08:46:39;;;;;;;100.00;27.45;;;;;;;4.06;100.00;103859.53;5088589;28;20032;-80
2022/01/18 08:49:05;;;;;;;91.72;26.48;;;;;;;4.09;100.00;103859.53;5079708;28;20040;-79
2022/01/18 08:51:31;;;;;;;99.82;27.35;;;;;;;4.11;100.00;103863.00;5073748;28;20020;-80
2022/01/18 08:53:56;;;;;;;99.65;27.55;;;;;;;4.15;100.00;103869.09;5084797;28;20035;-80
2022/01/18 08:56:22;;;;;;;98.95;27.00;;;;;;;4.13;100.00;103857.78;5078388;28;20120;-79
2022/01/18 08:58:48;;;;;;;87.22;25.58;;;;;;;4.16;100.00;103865.63;5086672;28;20148;-79
2022/01/18 09:01:15;;;;;;;91.05;26.13;;;;;;;4.17;100.00;103865.63;5080939;28;20039;-79
2022/01/18 09:03:41;;;;;;;103.70;26.98;;;;;;;4.20;100.00;103859.53;5084006;28;20073;-79
2022/01/18 09:06:07;;;;;;;88.35;26.33;;;;;;;4.24;100.00;103864.75;5091109;28;20106;-79
2022/01/18 09:08:36;;;;;;;92.90;26.60;;;;;;;4.25;100.00;103866.47;5106032;28;20024;-79
2022/01/18 09:11:03;;;;;;;91.63;25.25;;;;;;;4.26;100.00;103864.75;5090632;28;20408;-79
2022/01/18 09:13:28;;;;;;;83.90;26.20;;;;;;;4.30;100.00;103874.31;5089387;28;20054;-80
2022/01/18 09:15:55;;;;;;;81.93;25.45;;;;;;;4.33;100.00;103869.97;5091349;28;20032;-80
2022/01/18 09:18:20;;;;;;;85.25;25.75;;;;;;;4.34;100.00;103871.69;5088444;28;20070;-80
2022/01/18 09:20:46;;;;;;;91.88;25.10;;;;;;;4.35;100.00;103873.44;5090281;28;20541;-80
2022/01/18 09:23:12;;;;;;;77.03;24.90;;;;;;;4.41;100.00;103875.22;5090037;28;20055;-79
2022/01/18 09:25:37;;;;;;;79.05;24.80;;;;;;;4.38;100.00;103870.84;5102775;28;20113;-80
2022/01/18 09:28:04;;;;;;;85.75;24.65;;;;;;;4.44;100.00;103875.22;5079910;28;20067;-80
2022/01/18 09:30:31;;;;;;;79.55;25.15;;;;;;;4.47;100.00;103882.16;5088433;28;20115;-79
2022/01/18 09:32:58;;;;;;;82.07;25.85;;;;;;;4.48;100.00;103889.09;5105633;28;20020;-80
2022/01/18 09:35:25;;;;;;;93.47;26.50;;;;;;;4.51;100.00;103883.91;5090614;28;20044;-80
2022/01/18 09:37:50;;;;;;;91.10;26.95;;;;;;;4.52;100.00;103883.91;5091305;28;20059;-80
2022/01/18 09:40:19;;;;;;;89.97;27.60;;;;;;;4.54;100.00;103879.53;5106155;28;20040;-80
2022/01/18 09:42:46;;;;;;;94.65;25.92;;;;;;;4.54;100.00;103879.53;5083737;28;20384;-80
2022/01/18 09:45:15;;;;;;;86.80;26.45;;;;;;;4.60;100.00;103889.97;5091441;28;20016;-82
2022/01/18 09:47:43;;;;;;;84.57;26.85;;;;;;;4.65;100.00;103892.56;5087320;28;20036;-82
2022/01/18 09:50:13;;;;;;;83.03;27.85;;;;;;;4.66;100.00;103889.09;5079160;28;20080;-81
2022/01/18 09:52:38;;;;;;;89.18;27.70;;;;;;;4.68;100.00;103897.78;5089871;28;20028;-81
2022/01/18 09:55:07;;;;;;;88.70;27.65;;;;;;;4.71;100.00;103887.34;5083478;28;20024;-81
2022/01/18 09:57:33;;;;;;;87.82;27.75;;;;;;;4.75;100.00;103891.69;5090581;28;20020;-81
2022/01/18 09:59:59;;;;;;;83.15;28.95;;;;;;;4.80;100.00;103897.78;5101525;28;20024;-80
2022/01/18 10:02:25;;;;;;;73.72;26.92;;;;;;;4.85;100.00;103901.28;5079764;28;20054;-81
2022/01/18 10:04:53;;;;;;;69.90;26.20;;;;;;;4.91;100.00;103896.03;5082152;28;20154;-81
2022/01/18 10:07:30;;;;;;;71.05;26.45;;;;;;;4.95;100.00;103895.16;5083016;28;20028;-80
2022/01/18 10:10:00;;;;;;;73.47;25.85;;;;;;;4.95;100.00;103887.34;5099333;28;20027;-80
2022/01/18 10:12:26;;;;;;;67.13;24.95;;;;;;;5.02;100.00;103896.88;5079300;28;20024;-81
2022/01/18 10:15:02;;;;;;;63.35;24.10;;;;;;;5.06;100.00;103899.50;5084174;28;20024;-81
2022/01/18 10:17:35;;;;;;;62.42;25.10;;;;;;;5.08;100.00;103897.75;5079483;28;20041;-81
2022/01/18 10:20:14;;;;;;;60.78;23.83;;;;;;;5.15;100.00;103899.47;5085167;28;20027;-81
2022/01/18 10:22:41;;;;;;;65.43;26.08;;;;;;;5.15;100.00;103889.88;5082243;28;20036;-81
2022/01/18 10:25:18;;;;;;;68.47;27.15;;;;;;;5.22;100.00;103890.78;5090329;28;20118;-81
2022/01/18 10:27:47;;;;;;;67.45;27.80;;;;;;;5.22;100.00;103881.19;5080807;28;20115;-80
2022/01/18 10:30:20;;;;;;;72.45;28.75;;;;;;;5.28;100.00;103885.53;5088764;28;20052;-80
2022/01/18 10:33:14;;;;;;;73.63;30.08;;;;;;;5.32;100.00;103884.66;5089443;28;20421;-80
2022/01/18 10:36:05;;;;;;;74.38;29.65;;;;;;;5.35;100.00;103876.81;5104278;28;20052;-80
2022/01/18 10:38:31;;;;;;;85.63;34.10;;;;;;;5.41;100.00;103876.78;5096966;28;20027;-80
2022/01/18 10:40:57;;;;;;;86.95;36.20;;;;;;;5.44;100.00;103878.50;5088229;28;20111;-80
2022/01/18 10:43:33;;;;;;;84.22;36.65;;;;;;;5.46;100.00;103869.78;5088367;28;20111;-79
2022/01/18 10:46:15;;;;;;;89.03;35.30;;;;;;;5.52;100.00;103874.97;5089766;28;20373;-80
2022/01/18 10:48:49;;;;;;;80.43;35.05;;;;;;;5.59;100.00;103866.22;5104910;28;20044;-79
2022/01/18 10:51:35;;;;;;;93.38;32.75;;;;;;;5.66;100.00;103857.53;5089787;28;20027;-79
2022/01/18 10:54:06;;;;;;;78.10;28.73;;;;;;;5.73;100.00;103858.34;5082012;28;20027;-80
2022/01/18 10:56:47;;;;;;;82.47;27.42;;;;;;;5.79;100.00;103858.31;5089242;28;20036;-80
2022/01/18 10:59:25;;;;;;;71.47;29.42;;;;;;;5.80;100.00;103849.59;5081695;28;20012;-80
2022/01/18 11:02:08;;;;;;;75.30;29.23;;;;;;;5.86;100.00;103851.31;5089158;28;20032;-79
2022/01/18 11:04:34;;;;;;;72.97;28.50;;;;;;;5.88;100.00;103853.03;5081480;28;20472;-80
2022/01/18 11:07:02;;;;;;;69.18;26.90;;;;;;;5.92;100.00;103851.31;5097287;28;20035;-79
2022/01/18 11:09:27;;;;;;;74.55;27.55;;;;;;;5.98;100.00;103846.03;5088521;28;20615;-80
2022/01/18 11:11:52;;;;;;;70.05;26.10;;;;;;;6.02;100.00;103834.72;5082095;28;20125;-80
2022/01/18 11:14:21;;;;;;;68.60;27.38;;;;;;;6.09;100.00;103846.84;5088162;28;20051;-80
2022/01/18 11:16:48;;;;;;;70.30;27.50;;;;;;;6.10;100.00;103838.13;5085429;28;20024;-79
2022/01/18 11:21:50;;;;;;;61.80;25.38;;;;;;;6.23;100.00;103850.22;5087145;28;20028;-79
2022/01/18 11:24:17;;;;;;;58.60;25.58;;;;;;;6.29;100.00;103841.44;5085363;28;20021;-80
2022/01/18 11:26:44;;;;;;;72.13;25.83;;;;;;;6.33;100.00;103840.53;5103070;28;20072;-79
2022/01/18 11:29:12;;;;;;;62.40;25.13;;;;;;;6.40;100.00;103833.50;5077907;28;20024;-80
2022/01/18 11:31:38;;;;;;;59.40;24.55;;;;;;;6.44;100.00;103833.50;5070658;28;20096;-80
2022/01/18 11:34:07;;;;;;;65.63;23.20;;;;;;;6.49;100.00;103830.84;5084662;28;20027;-80
2022/01/18 11:36:39;;;;;;;57.65;23.40;;;;;;;6.55;100.00;103830.78;5086249;28;20027;-80
2022/01/18 11:39:11;;;;;;;53.67;23.80;;;;;;;6.57;100.00;103823.78;5086265;28;20012;-80
2022/01/18 11:41:36;;;;;;;53.17;23.52;;;;;;;6.60;100.00;103821.13;5101849;28;20117;-82
2022/01/18 11:44:17;;;;;;;58.33;23.40;;;;;;;6.69;100.00;103814.94;5083088;28;20047;-82
2022/01/18 11:46:51;;;;;;;52.60;21.45;;;;;;;6.69;100.00;103821.03;5084665;28;20692;-82
2022/01/18 11:49:22;;;;;;;52.97;21.15;;;;;;;6.71;100.00;103821.03;5081631;28;20127;-82
2022/01/18 11:51:54;;;;;;;52.17;21.17;;;;;;;6.67;100.00;103814.97;5102106;28;20024;-82
2022/01/18 11:54:35;;;;;;;49.37;20.53;;;;;;;6.74;100.00;103813.16;5082120;28;20026;-82
2022/01/18 11:57:15;;;;;;;41.42;19.73;;;;;;;6.75;100.00;103818.38;5087363;28;20317;-82
2022/01/18 11:59:41;;;;;;;45.20;19.17;;;;;;;6.74;100.00;103824.47;5084928;28;20028;-80
2022/01/18 12:02:07;;;;;;;51.53;19.40;;;;;;;6.72;100.00;103818.41;5086786;28;20042;-80
2022/01/18 12:04:46;;;;;;;51.65;18.33;;;;;;;6.76;100.00;103820.09;5085581;28;20513;-79
2022/01/18 12:07:34;;;;;;;51.20;19.92;;;;;;;6.84;100.00;103817.44;5083004;28;20032;-80
2022/01/18 12:10:01;;;;;;;48.45;19.23;;;;;;;6.81;100.00;103805.25;5085343;28;20044;-82
2022/01/18 12:12:48;;;;;;;44.53;20.00;;;;;;;6.87;100.00;103802.56;5087123;28;20020;-82
2022/01/18 12:15:20;;;;;;;42.55;19.50;;;;;;;6.89;100.00;103800.78;5083046;28;20024;-82
2022/01/18 12:18:06;;;;;;;40.92;18.30;;;;;;;6.92;100.00;103789.41;5086295;28;20031;-80
2022/01/18 12:20:39;;;;;;;45.75;17.65;;;;;;;6.95;100.00;103798.97;5073926;28;20935;-81
2022/01/18 12:23:08;;;;;;;44.97;18.40;;;;;;;6.98;100.00;103804.19;5087093;28;20091;-80
2022/01/18 12:25:36;;;;;;;52.78;18.05;;;;;;;6.98;99.58;103804.19;5086570;28;20032;-79